createdAt,value
2019-05-12T00:00:39.479Z,11.56
2019-05-12T00:03:10.236Z,11.34
2019-05-12T00:05:40.517Z,11.44
2019-05-12T00:08:11.130Z,11.33
2019-05-12T00:10:41.664Z,11.29
2019-05-12T00:13:12.361Z,11.23
2019-05-12T00:15:42.921Z,11.25
2019-05-12T00:18:13.535Z,11.23
2019-05-12T00:20:43.972Z,11.08
2019-05-12T00:23:26.640Z,11.22
2019-05-12T00:25:47.989Z,11.10
2019-05-12T00:28:18.787Z,11.05
2019-05-12T00:30:50.888Z,11.07
2019-05-12T00:33:21.607Z,10.89
2019-05-12T00:35:52.086Z,11.01
2019-05-12T00:38:22.572Z,11.00
2019-05-12T00:40:53.091Z,10.97
2019-05-12T00:43:23.683Z,10.89
2019-05-12T00:45:54.005Z,11.03
2019-05-12T00:48:24.660Z,10.98
2019-05-12T00:50:55.037Z,10.93
2019-05-12T00:53:37.169Z,10.80
2019-05-12T00:55:57.896Z,10.75
2019-05-12T00:58:28.519Z,10.78
2019-05-12T01:00:59.711Z,10.73
2019-05-12T01:03:30.653Z,10.81
2019-05-12T01:06:01.248Z,10.52
2019-05-12T01:08:31.910Z,10.47
2019-05-12T01:11:02.373Z,10.30
2019-05-12T01:13:32.937Z,10.26
2019-05-12T01:16:03.241Z,10.13
2019-05-12T01:18:34.010Z,10.03
2019-05-12T01:21:04.645Z,9.83
2019-05-12T01:23:35.245Z,9.53
2019-05-12T01:26:05.849Z,9.38
2019-05-12T01:28:38.287Z,9.42
2019-05-12T01:31:10.045Z,9.63
2019-05-12T01:33:40.708Z,9.75
2019-05-12T01:36:11.308Z,9.78
2019-05-12T01:38:41.649Z,9.89
2019-05-12T01:41:12.274Z,9.83
2019-05-12T01:43:42.740Z,9.87
2019-05-12T01:46:13.319Z,9.90
2019-05-12T01:48:43.909Z,9.93
2019-05-12T01:51:14.251Z,9.95
2019-05-12T01:53:44.509Z,9.92
2019-05-12T01:56:15.075Z,9.62
2019-05-12T01:58:45.473Z,9.75
2019-05-12T02:01:18.385Z,9.85
2019-05-12T02:03:48.149Z,9.96
2019-05-12T02:06:18.802Z,9.96
2019-05-12T02:08:54.239Z,9.76
2019-05-12T02:11:34.127Z,9.89
2019-05-12T02:14:05.272Z,9.94
2019-05-12T02:16:35.762Z,9.87
2019-05-12T02:19:08.760Z,9.90
2019-05-12T02:21:38.466Z,9.86
2019-05-12T02:24:23.055Z,9.88
2019-05-12T02:26:40.880Z,9.87
2019-05-12T02:29:11.338Z,9.72
2019-05-12T02:31:41.881Z,9.71
2019-05-12T02:34:15.359Z,9.62
2019-05-12T02:36:45.042Z,9.68
2019-05-12T02:39:15.522Z,9.60
2019-05-12T02:41:46.272Z,9.69
2019-05-12T02:44:16.955Z,9.65
2019-05-12T02:46:47.350Z,9.80
2019-05-12T02:49:17.757Z,9.54
2019-05-12T02:51:49.272Z,9.23
2019-05-12T02:54:20.925Z,8.89
2019-05-12T02:56:51.270Z,8.55
2019-05-12T02:59:25.011Z,8.33
2019-05-12T03:01:55.190Z,8.40
2019-05-12T03:04:27.663Z,8.36
2019-05-12T03:07:02.017Z,8.55
2019-05-12T03:09:34.887Z,8.59
2019-05-12T03:12:05.902Z,8.61
2019-05-12T03:14:40.605Z,8.85
2019-05-12T03:17:07.498Z,8.82
2019-05-12T03:19:37.947Z,8.98
2019-05-12T03:22:08.534Z,9.03
2019-05-12T03:24:39.088Z,9.20
2019-05-12T03:27:09.559Z,9.22
2019-05-12T03:29:40.130Z,9.16
2019-05-12T03:32:10.817Z,9.20
2019-05-12T03:34:46.882Z,8.96
2019-05-12T03:37:17.930Z,8.85
2019-05-12T03:39:45.745Z,8.83
2019-05-12T03:42:16.225Z,9.10
2019-05-12T03:44:46.812Z,9.17
2019-05-12T03:47:17.205Z,9.36
2019-05-12T03:49:47.803Z,9.54
2019-05-12T03:52:18.408Z,9.63
2019-05-12T03:54:48.884Z,9.72
2019-05-12T03:57:19.346Z,9.83
2019-05-12T03:59:49.724Z,9.72
2019-05-12T04:02:20.353Z,9.63
2019-05-12T04:04:55.290Z,9.72
2019-05-12T04:07:24.423Z,9.95
2019-05-12T04:09:55.253Z,10.01
2019-05-12T04:12:25.839Z,10.15
2019-05-12T04:14:56.226Z,10.01
2019-05-12T04:17:26.667Z,10.15
2019-05-12T04:19:57.162Z,10.08
2019-05-12T04:22:27.861Z,10.22
2019-05-12T04:24:58.320Z,10.10
2019-05-12T04:27:28.801Z,10.07
2019-05-12T04:29:59.393Z,10.18
2019-05-12T04:32:30.113Z,10.31
2019-05-12T04:35:04.536Z,10.60
2019-05-12T04:37:35.270Z,10.78
2019-05-12T04:40:06.042Z,10.78
2019-05-12T04:42:36.458Z,11.06
2019-05-12T04:45:07.237Z,10.99
2019-05-12T04:47:37.424Z,10.97
2019-05-12T04:50:07.913Z,11.05
2019-05-12T04:52:38.498Z,10.95
2019-05-12T04:55:09.181Z,11.11
2019-05-12T04:57:39.803Z,11.36
2019-05-12T05:00:10.523Z,11.49
2019-05-12T05:02:41.078Z,11.67
2019-05-12T05:05:14.233Z,12.04
2019-05-12T05:07:45.050Z,12.24
2019-05-12T05:10:15.576Z,12.55
2019-05-12T05:12:46.201Z,12.92
2019-05-12T05:15:16.611Z,13.19
2019-05-12T05:17:47.306Z,13.42
2019-05-12T05:20:17.844Z,13.66
2019-05-12T05:22:48.362Z,13.83
2019-05-12T05:25:18.729Z,13.90
2019-05-12T05:27:49.535Z,13.96
2019-05-12T05:30:20.126Z,14.11
2019-05-12T05:32:50.734Z,14.25
2019-05-12T05:35:21.164Z,14.62
2019-05-12T05:37:53.883Z,14.76
2019-05-12T05:40:30.138Z,14.85
2019-05-12T05:42:57.186Z,15.11
2019-05-12T05:45:27.731Z,15.20
2019-05-12T05:48:02.699Z,15.42
2019-05-12T05:50:29.848Z,15.73
2019-05-12T05:53:00.659Z,16.05
2019-05-12T05:55:31.189Z,16.24
2019-05-12T05:58:07.898Z,16.42
2019-05-12T06:00:35.082Z,16.44
2019-05-12T06:03:06.167Z,16.42
2019-05-12T06:05:38.698Z,16.47
2019-05-12T06:08:16.313Z,16.44
2019-05-12T06:10:43.366Z,16.40
2019-05-12T06:13:14.400Z,16.42
2019-05-12T06:15:44.960Z,16.45
2019-05-12T06:18:15.251Z,16.40
2019-05-12T06:20:45.750Z,16.48
2019-05-12T06:23:16.476Z,16.61
2019-05-12T06:25:51.343Z,16.59
2019-05-12T06:28:18.687Z,16.52
2019-05-12T06:30:50.250Z,16.67
2019-05-12T06:33:22.732Z,16.77
2019-05-12T06:35:54.322Z,16.85
2019-05-12T06:38:24.504Z,17.22
2019-05-12T06:40:55.096Z,17.36
2019-05-12T06:43:29.066Z,17.50
2019-05-12T06:45:57.613Z,17.34
2019-05-12T06:48:30.171Z,17.41
2019-05-12T06:51:00.617Z,17.48
2019-05-12T06:53:31.675Z,17.52
2019-05-12T06:56:04.492Z,17.76
2019-05-12T06:58:35.237Z,17.36
2019-05-12T07:01:10.411Z,17.66
2019-05-12T07:03:37.995Z,17.52
2019-05-12T07:06:09.280Z,17.43
2019-05-12T07:08:40.643Z,17.17
2019-05-12T07:11:14.100Z,17.30
2019-05-12T07:13:43.677Z,17.36
2019-05-12T07:16:23.026Z,17.54
2019-05-12T07:18:49.671Z,17.65
2019-05-12T07:21:23.717Z,18.00
2019-05-12T07:23:53.493Z,18.04
2019-05-12T07:26:24.081Z,18.28
2019-05-12T07:28:54.446Z,18.35
2019-05-12T07:31:24.812Z,18.72
2019-05-12T07:33:55.456Z,18.96
2019-05-12T07:36:26.162Z,19.16
2019-05-12T07:39:03.915Z,18.89
2019-05-12T07:41:30.791Z,18.91
2019-05-12T07:44:03.507Z,19.31
2019-05-12T07:46:34.246Z,19.30
2019-05-12T07:49:05.112Z,19.36
2019-05-12T07:51:40.511Z,19.61
2019-05-12T07:54:07.780Z,19.74
2019-05-12T07:56:40.869Z,19.74
2019-05-12T07:59:13.453Z,19.44
2019-05-12T08:01:50.285Z,19.80
2019-05-12T08:04:14.787Z,19.89
2019-05-12T08:06:46.640Z,19.84
2019-05-12T08:09:23.335Z,20.06
2019-05-12T08:11:50.485Z,20.06
2019-05-12T08:14:27.636Z,19.95
2019-05-12T08:16:54.263Z,20.26
2019-05-12T08:19:28.048Z,20.52
2019-05-12T08:21:57.067Z,20.10
2019-05-12T08:24:28.027Z,20.40
2019-05-12T08:27:03.035Z,20.66
2019-05-12T08:29:30.408Z,20.58
2019-05-12T08:32:00.902Z,20.67
2019-05-12T08:34:33.735Z,20.63
2019-05-12T08:37:04.315Z,20.58
2019-05-12T08:39:35.049Z,20.43
2019-05-12T08:42:05.762Z,20.68
2019-05-12T08:44:40.630Z,20.92
2019-05-12T08:47:11.700Z,21.10
2019-05-12T08:49:50.055Z,21.16
2019-05-12T08:52:14.171Z,21.40
2019-05-12T08:54:49.289Z,21.77
2019-05-12T08:57:16.849Z,21.70
2019-05-12T08:59:47.446Z,21.66
2019-05-12T09:02:17.920Z,21.69
2019-05-12T09:04:51.473Z,21.71
2019-05-12T09:07:24.131Z,21.82
2019-05-12T09:09:53.826Z,22.05
2019-05-12T09:12:24.180Z,22.27
2019-05-12T09:14:54.709Z,22.12
2019-05-12T09:17:26.329Z,22.32
2019-05-12T09:20:03.661Z,22.58
2019-05-12T09:22:29.139Z,22.62
2019-05-12T09:25:06.386Z,22.82
2019-05-12T09:27:33.427Z,22.88
2019-05-12T09:30:08.105Z,22.71
2019-05-12T09:32:39.103Z,23.01
2019-05-12T09:35:08.156Z,23.29
2019-05-12T09:37:40.302Z,23.07
2019-05-12T09:40:11.096Z,23.51
2019-05-12T09:42:41.310Z,23.72
2019-05-12T09:45:13.618Z,23.66
2019-05-12T09:47:43.753Z,23.90
2019-05-12T09:50:20.094Z,24.08
2019-05-12T09:52:50.026Z,24.43
2019-05-12T09:55:18.423Z,24.45
2019-05-12T09:57:49.262Z,24.45
2019-05-12T10:00:19.892Z,24.24
2019-05-12T10:02:51.254Z,24.19
2019-05-12T10:05:22.344Z,24.35
2019-05-12T10:07:53.637Z,24.75
2019-05-12T10:10:24.331Z,25.21
2019-05-12T10:12:54.920Z,24.81
2019-05-12T10:15:28.698Z,24.90
2019-05-12T10:18:00.230Z,24.86
2019-05-12T10:20:36.722Z,24.82
2019-05-12T10:23:04.460Z,24.51
2019-05-12T10:25:34.420Z,24.19
2019-05-12T10:28:11.305Z,24.35
2019-05-12T10:30:37.138Z,24.34
2019-05-12T10:33:07.320Z,24.28
2019-05-12T10:35:37.675Z,24.00
2019-05-12T10:38:10.627Z,24.04
2019-05-12T10:40:40.315Z,24.36
2019-05-12T10:43:10.866Z,24.48
2019-05-12T10:45:41.424Z,24.72
2019-05-12T10:48:14.073Z,25.11
2019-05-12T10:50:44.380Z,25.12
2019-05-12T10:53:16.204Z,25.48
2019-05-12T10:55:47.299Z,25.01
2019-05-12T10:58:17.881Z,24.55
2019-05-12T11:00:48.559Z,24.74
2019-05-12T11:03:18.995Z,25.13
2019-05-12T11:05:53.719Z,25.03
2019-05-12T11:08:21.321Z,25.09
2019-05-12T11:10:59.325Z,25.29
2019-05-12T11:13:23.853Z,25.07
2019-05-12T11:15:54.507Z,25.00
2019-05-12T11:18:30.291Z,25.06
2019-05-12T11:20:57.722Z,24.68
2019-05-12T11:23:27.889Z,24.41
2019-05-12T11:25:58.549Z,24.29
2019-05-12T11:28:28.852Z,24.40
2019-05-12T11:30:59.810Z,24.53
2019-05-12T11:33:30.303Z,24.49
2019-05-12T11:36:00.834Z,24.15
2019-05-12T11:38:33.577Z,24.28
2019-05-12T11:41:04.227Z,24.29
2019-05-12T11:43:34.826Z,24.50
2019-05-12T11:46:05.334Z,24.51
2019-05-12T11:48:40.337Z,24.80
2019-05-12T11:51:07.544Z,24.95
2019-05-12T11:53:38.507Z,24.36
2019-05-12T11:56:09.353Z,24.38
2019-05-12T11:58:41.131Z,23.78
2019-05-12T12:01:13.533Z,24.03
2019-05-12T12:03:44.139Z,23.97
2019-05-12T12:06:14.612Z,23.64
2019-05-12T12:08:45.153Z,23.50
2019-05-12T12:11:21.922Z,23.23
2019-05-12T12:13:49.208Z,23.08
2019-05-12T12:16:19.672Z,22.83
2019-05-12T12:18:59.565Z,22.95
2019-05-12T12:21:23.736Z,22.73
2019-05-12T12:23:54.262Z,22.67
2019-05-12T12:26:30.213Z,22.68
2019-05-12T12:28:58.328Z,22.78
2019-05-12T12:31:37.259Z,22.96
2019-05-12T12:34:03.598Z,22.92
2019-05-12T12:36:34.325Z,22.95
2019-05-12T12:39:05.678Z,23.02
2019-05-12T12:41:36.300Z,22.90
2019-05-12T12:44:06.644Z,22.76
2019-05-12T12:46:37.228Z,22.64
2019-05-12T12:49:10.397Z,22.50
2019-05-12T12:51:39.479Z,22.39
2019-05-12T12:54:12.950Z,22.32
2019-05-12T12:56:43.416Z,22.24
2019-05-12T12:59:14.681Z,22.30
2019-05-12T13:01:45.374Z,22.11
2019-05-12T13:04:15.863Z,22.00
2019-05-12T13:06:46.347Z,22.12
2019-05-12T13:09:23.948Z,22.03
2019-05-12T13:11:48.676Z,21.99
2019-05-12T13:14:18.906Z,22.13
2019-05-12T13:16:54.577Z,21.96
2019-05-12T13:19:21.299Z,21.97
2019-05-12T13:21:53.212Z,22.07
2019-05-12T13:24:24.033Z,21.99
2019-05-12T13:26:54.723Z,22.14
2019-05-12T13:29:26.421Z,22.00
2019-05-12T13:31:57.529Z,21.87
2019-05-12T13:34:28.787Z,21.74
2019-05-12T13:37:00.143Z,21.68
2019-05-12T13:39:30.578Z,21.69
2019-05-12T13:42:03.220Z,21.33
2019-05-12T13:44:36.485Z,21.30
2019-05-12T13:47:05.480Z,21.35
2019-05-12T13:49:41.642Z,21.65
2019-05-12T13:52:09.526Z,21.79
2019-05-12T13:54:39.730Z,21.57
2019-05-12T13:57:13.397Z,21.29
2019-05-12T13:59:43.487Z,21.23
2019-05-12T14:02:21.859Z,20.87
2019-05-12T14:04:47.057Z,20.34
2019-05-12T14:07:20.061Z,20.34
2019-05-12T14:09:49.575Z,20.22
2019-05-12T14:12:20.029Z,20.01
2019-05-12T14:14:53.334Z,19.93
2019-05-12T14:17:23.676Z,19.90
2019-05-12T14:19:54.259Z,19.56
2019-05-12T14:22:26.375Z,19.64
2019-05-12T14:25:01.977Z,19.74
2019-05-12T14:27:30.418Z,19.69
2019-05-12T14:30:09.441Z,19.65
2019-05-12T14:32:33.995Z,19.78
2019-05-12T14:35:04.550Z,19.79
2019-05-12T14:37:35.208Z,19.61
2019-05-12T14:40:05.848Z,19.69
2019-05-12T14:42:39.669Z,19.61
2019-05-12T14:45:08.435Z,19.56
2019-05-12T14:47:39.078Z,19.55
2019-05-12T14:50:09.531Z,19.41
2019-05-12T14:52:40.341Z,19.23
2019-05-12T14:55:13.620Z,19.13
2019-05-12T14:57:43.305Z,18.79
2019-05-12T15:00:17.497Z,18.92
2019-05-12T15:02:45.937Z,18.78
2019-05-12T15:05:16.397Z,18.71
2019-05-12T15:07:51.526Z,18.45
2019-05-12T15:10:19.056Z,18.59
2019-05-12T15:12:49.730Z,18.48
2019-05-12T15:15:20.856Z,18.41
2019-05-12T15:17:55.082Z,18.35
2019-05-12T15:20:24.129Z,18.38
2019-05-12T15:22:55.388Z,18.44
2019-05-12T15:25:29.438Z,18.51
2019-05-12T15:27:58.217Z,18.47
2019-05-12T15:30:28.869Z,18.16
2019-05-12T15:32:59.880Z,18.24
2019-05-12T15:35:30.549Z,18.30
2019-05-12T15:38:03.485Z,18.25
2019-05-12T15:40:33.063Z,18.53
2019-05-12T15:43:05.490Z,18.74
2019-05-12T15:45:35.763Z,18.90
2019-05-12T15:48:06.434Z,18.89
2019-05-12T15:50:36.535Z,18.94
2019-05-12T15:53:06.966Z,18.92
2019-05-12T15:55:37.409Z,18.99
2019-05-12T15:58:07.959Z,18.90
2019-05-12T16:00:38.589Z,18.77
2019-05-12T16:03:09.036Z,18.82
2019-05-12T16:05:39.769Z,18.95
2019-05-12T16:08:10.244Z,18.91
2019-05-12T16:10:40.975Z,18.93
2019-05-12T16:13:15.484Z,18.98
2019-05-12T16:15:43.904Z,19.00
2019-05-12T16:18:14.554Z,19.05
2019-05-12T16:20:45.170Z,18.97
2019-05-12T16:23:23.793Z,19.10
2019-05-12T16:25:47.640Z,19.03
2019-05-12T16:28:23.422Z,19.03
2019-05-12T16:30:50.317Z,19.10
2019-05-12T16:33:21.983Z,19.12
2019-05-12T16:35:54.602Z,19.19
2019-05-12T16:38:24.811Z,19.19
2019-05-12T16:40:55.157Z,19.19
2019-05-12T16:43:29.380Z,19.24
2019-05-12T16:45:57.904Z,19.22
2019-05-12T16:48:32.920Z,19.16
2019-05-12T16:51:00.457Z,19.10
2019-05-12T16:53:31.076Z,19.12
2019-05-12T16:56:03.617Z,19.02
2019-05-12T16:58:35.455Z,19.08
2019-05-12T17:01:05.488Z,19.15
2019-05-12T17:03:36.120Z,19.18
2019-05-12T17:06:06.468Z,19.13
2019-05-12T17:08:37.250Z,19.09
2019-05-12T17:11:23.340Z,19.06
2019-05-12T17:13:39.667Z,19.04
2019-05-12T17:16:10.761Z,19.06
2019-05-12T17:18:41.502Z,19.02
2019-05-12T17:21:14.096Z,18.98
2019-05-12T17:23:44.015Z,18.91
2019-05-12T17:26:14.766Z,18.85
2019-05-12T17:28:45.360Z,18.73
2019-05-12T17:31:16.013Z,18.69
2019-05-12T17:33:46.586Z,18.66
2019-05-12T17:36:18.025Z,18.57
2019-05-12T17:38:51.031Z,18.56
2019-05-12T17:41:23.469Z,18.61
2019-05-12T17:44:00.940Z,18.40
2019-05-12T17:46:25.182Z,18.45
2019-05-12T17:48:55.601Z,18.16
2019-05-12T17:51:30.729Z,18.27
2019-05-12T17:53:58.493Z,18.33
2019-05-12T17:56:36.670Z,18.19
2019-05-12T17:59:01.150Z,18.14
2019-05-12T18:01:35.407Z,18.25
2019-05-12T18:04:04.624Z,18.29
2019-05-12T18:06:35.321Z,18.29
2019-05-12T18:09:09.204Z,18.24
2019-05-12T18:11:38.992Z,18.26
2019-05-12T18:14:09.392Z,18.19
2019-05-12T18:16:43.021Z,18.27
2019-05-12T18:19:15.430Z,18.31
2019-05-12T18:21:45.037Z,18.28
2019-05-12T18:24:15.426Z,18.30
2019-05-12T18:26:54.520Z,18.32
2019-05-12T18:29:17.895Z,18.24
2019-05-12T18:31:48.393Z,18.09
2019-05-12T18:34:19.948Z,18.13
2019-05-12T18:36:56.273Z,18.03
2019-05-12T18:39:24.290Z,17.98
2019-05-12T18:41:55.349Z,18.02
2019-05-12T18:44:31.357Z,17.91
2019-05-12T18:46:58.823Z,17.96
2019-05-12T18:49:29.510Z,17.91
2019-05-12T18:52:00.048Z,17.86
2019-05-12T18:54:30.393Z,17.90
2019-05-12T18:57:04.172Z,17.79
2019-05-12T18:59:33.983Z,17.61
2019-05-12T19:02:04.488Z,17.61
2019-05-12T19:04:39.630Z,17.62
2019-05-12T19:07:07.520Z,17.49
2019-05-12T19:09:38.141Z,17.61
2019-05-12T19:12:15.806Z,17.57
2019-05-12T19:14:43.520Z,17.54
2019-05-12T19:17:14.128Z,17.59
2019-05-12T19:19:46.225Z,17.47
2019-05-12T19:22:17.011Z,17.43
2019-05-12T19:24:50.083Z,17.49
2019-05-12T19:27:20.906Z,17.51
2019-05-12T19:29:54.404Z,17.49
2019-05-12T19:32:28.064Z,17.37
2019-05-12T19:34:56.159Z,17.38
2019-05-12T19:37:29.931Z,17.33
2019-05-12T19:40:06.079Z,17.38
2019-05-12T19:42:30.880Z,17.31
2019-05-12T19:45:06.780Z,17.31
2019-05-12T19:47:38.154Z,17.33
2019-05-12T19:50:11.092Z,17.34
2019-05-12T19:52:38.428Z,17.34
2019-05-12T19:55:09.152Z,17.40
2019-05-12T19:57:39.719Z,17.40
2019-05-12T20:00:10.447Z,17.42
2019-05-12T20:02:41.154Z,17.42
2019-05-12T20:05:15.112Z,17.39
2019-05-12T20:07:44.772Z,17.39
2019-05-12T20:10:16.540Z,17.32
2019-05-12T20:12:54.149Z,17.07
2019-05-12T20:15:20.044Z,17.11
2019-05-12T20:17:50.497Z,17.25
2019-05-12T20:20:26.646Z,17.37
2019-05-12T20:22:54.265Z,17.40
2019-05-12T20:25:25.038Z,17.43
2019-05-12T20:28:04.325Z,17.52
2019-05-12T20:30:28.168Z,17.42
2019-05-12T20:32:58.711Z,17.57
2019-05-12T20:35:29.175Z,17.61
2019-05-12T20:37:59.577Z,17.60
2019-05-12T20:40:32.159Z,17.56
2019-05-12T20:43:13.851Z,17.57
2019-05-12T20:45:40.636Z,17.60
2019-05-12T20:48:06.693Z,17.55
2019-05-12T20:50:38.831Z,17.51
2019-05-12T20:53:09.094Z,17.53
2019-05-12T20:55:41.430Z,17.47
2019-05-12T20:58:13.614Z,17.26
2019-05-12T21:00:49.835Z,17.32
2019-05-12T21:03:16.508Z,17.38
2019-05-12T21:05:50.761Z,17.39
2019-05-12T21:08:18.985Z,17.21
2019-05-12T21:10:49.851Z,17.31
2019-05-12T21:13:25.524Z,17.30
2019-05-12T21:15:53.946Z,17.29
2019-05-12T21:18:24.905Z,17.25
2019-05-12T21:20:55.377Z,17.24
2019-05-12T21:23:25.815Z,17.08
2019-05-12T21:25:58.387Z,17.12
2019-05-12T21:28:28.912Z,17.20
2019-05-12T21:30:59.399Z,17.10
2019-05-12T21:33:31.351Z,17.11
2019-05-12T21:36:03.643Z,17.20
2019-05-12T21:38:34.133Z,17.15
2019-05-12T21:41:07.885Z,17.18
2019-05-12T21:43:36.808Z,17.19
2019-05-12T21:46:12.288Z,17.19
2019-05-12T21:48:39.438Z,17.14
2019-05-12T21:51:15.420Z,17.03
2019-05-12T21:53:43.749Z,17.00
2019-05-12T21:56:14.296Z,16.90
2019-05-12T21:58:53.416Z,16.71
2019-05-12T22:01:16.797Z,16.41
2019-05-12T22:03:57.863Z,16.29
2019-05-12T22:06:21.733Z,16.40
2019-05-12T22:09:00.986Z,16.37
2019-05-12T22:11:24.759Z,16.38
2019-05-12T22:14:00.070Z,16.40
2019-05-12T22:16:29.698Z,16.45
2019-05-12T22:18:59.530Z,16.50
2019-05-12T22:21:35.865Z,16.55
2019-05-12T22:24:03.945Z,16.50
2019-05-12T22:26:39.730Z,16.52
2019-05-12T22:29:08.220Z,16.55
2019-05-12T22:31:44.033Z,16.56
2019-05-12T22:34:11.140Z,16.51
2019-05-12T22:36:45.236Z,16.52
2019-05-12T22:39:14.329Z,16.50
2019-05-12T22:41:44.871Z,16.48
2019-05-12T22:44:21.040Z,16.44
2019-05-12T22:46:47.962Z,16.36
2019-05-12T22:49:21.050Z,16.28
2019-05-12T22:51:56.579Z,16.23
2019-05-12T22:54:24.306Z,16.09
2019-05-12T22:56:56.971Z,16.03
2019-05-12T22:59:34.308Z,15.91
2019-05-12T23:01:59.903Z,15.82
2019-05-12T23:04:35.542Z,15.72
2019-05-12T23:07:02.814Z,15.65
2019-05-12T23:09:34.076Z,15.58
2019-05-12T23:12:09.777Z,15.41
2019-05-12T23:14:36.824Z,15.28
2019-05-12T23:17:07.631Z,15.29
2019-05-12T23:19:42.974Z,15.27
2019-05-12T23:22:10.272Z,15.18
2019-05-12T23:24:40.907Z,14.93
2019-05-12T23:27:13.672Z,14.94
2019-05-12T23:29:44.631Z,14.92
2019-05-12T23:32:15.322Z,14.83
2019-05-12T23:34:54.100Z,14.82
2019-05-12T23:37:18.183Z,14.80
2019-05-12T23:39:49.809Z,14.39
2019-05-12T23:42:20.504Z,14.49
2019-05-12T23:44:51.111Z,14.43
2019-05-12T23:47:23.675Z,14.42
2019-05-12T23:49:54.063Z,14.35
2019-05-12T23:52:24.503Z,14.17
2019-05-12T23:54:55.193Z,14.20
2019-05-12T23:57:26.174Z,14.02
2019-05-12T23:59:57.178Z,13.72
